createdAt,value
2018-03-15T00:00:47.561Z,96.10
2018-03-15T00:03:21.528Z,96.00
2018-03-15T00:05:48.952Z,96.00
2018-03-15T00:08:16.388Z,96.00
2018-03-15T00:10:43.837Z,95.90
2018-03-15T00:13:11.275Z,96.00
2018-03-15T00:15:38.701Z,96.00
2018-03-15T00:18:06.124Z,96.10
2018-03-15T00:20:33.580Z,96.30
2018-03-15T00:23:01.785Z,96.40
2018-03-15T00:25:29.231Z,96.40
2018-03-15T00:27:56.641Z,96.50
2018-03-15T00:30:24.068Z,96.70
2018-03-15T00:32:51.531Z,96.70
2018-03-15T00:35:18.944Z,96.70
2018-03-15T00:37:46.369Z,96.80
2018-03-15T00:40:13.805Z,96.80
2018-03-15T00:42:42.016Z,96.90
2018-03-15T00:45:09.432Z,96.80
2018-03-15T00:47:36.867Z,96.80
2018-03-15T00:50:04.307Z,97.20
2018-03-15T00:52:31.748Z,97.30
2018-03-15T00:54:59.188Z,97.40
2018-03-15T00:57:26.612Z,97.60
2018-03-15T00:59:54.804Z,98.20
2018-03-15T01:02:22.260Z,97.80
2018-03-15T01:04:49.675Z,98.00
2018-03-15T01:07:17.110Z,98.10
2018-03-15T01:09:45.309Z,98.40
2018-03-15T01:12:12.749Z,98.40
2018-03-15T01:14:40.163Z,98.50
2018-03-15T01:17:07.600Z,98.60
2018-03-15T01:19:35.040Z,98.80
2018-03-15T01:22:02.497Z,99.00
2018-03-15T01:24:29.909Z,98.90
2018-03-15T01:26:58.114Z,99.00
2018-03-15T01:29:25.567Z,99.00
2018-03-15T01:31:52.988Z,99.10
2018-03-15T01:34:20.444Z,99.20
2018-03-15T01:36:47.896Z,99.20
2018-03-15T01:39:15.311Z,99.50
2018-03-15T01:41:42.737Z,99.60
2018-03-15T01:44:10.179Z,99.40
2018-03-15T01:46:37.640Z,99.40
2018-03-15T01:49:05.083Z,99.50
2018-03-15T01:51:32.504Z,99.50
2018-03-15T01:53:59.943Z,99.70
2018-03-15T01:56:27.389Z,99.90
2018-03-15T01:58:54.828Z,99.90
2018-03-15T02:01:22.252Z,99.90
2018-03-15T02:03:50.448Z,99.90
2018-03-15T02:06:17.885Z,99.90
2018-03-15T02:42:57.517Z,99.90
2018-03-15T02:45:24.944Z,99.90
2018-03-15T02:47:53.132Z,99.90
2018-03-15T02:50:20.556Z,99.90
2018-03-15T02:52:47.985Z,99.90
2018-03-15T02:55:16.180Z,99.90
2018-03-15T02:57:43.600Z,99.90
2018-03-15T03:00:11.038Z,99.90
2018-03-15T03:02:38.469Z,99.90
2018-03-15T03:05:06.671Z,99.90
2018-03-15T03:07:34.103Z,99.90
2018-03-15T03:10:01.516Z,99.90
2018-03-15T03:12:28.953Z,99.90
2018-03-15T03:14:57.153Z,99.90
2018-03-15T03:17:24.597Z,99.90
2018-03-15T03:19:52.012Z,99.90
2018-03-15T03:22:19.483Z,99.90
2018-03-15T03:24:46.916Z,99.90
2018-03-15T03:27:14.346Z,99.90
2018-03-15T03:29:41.768Z,99.90
2018-03-15T03:32:09.205Z,99.90
2018-03-15T03:34:36.660Z,99.90
2018-03-15T03:37:04.100Z,99.90
2018-03-15T03:39:32.267Z,99.90
2018-03-15T03:41:59.687Z,99.90
2018-03-15T03:44:27.134Z,99.90
2018-03-15T03:46:54.572Z,99.90
2018-03-15T03:49:22.017Z,99.90
2018-03-15T03:51:50.200Z,99.90
2018-03-15T03:54:17.648Z,99.90
2018-03-15T03:56:45.062Z,99.90
2018-03-15T03:59:12.524Z,99.90
2018-03-15T04:01:40.680Z,99.90
2018-03-15T04:04:08.140Z,99.90
2018-03-15T04:06:35.580Z,99.90
2018-03-15T04:09:03.199Z,99.90
2018-03-15T04:11:30.648Z,99.90
2018-03-15T04:13:58.113Z,99.90
2018-03-15T04:16:25.576Z,99.90
2018-03-15T04:18:52.985Z,99.90
2018-03-15T04:21:20.420Z,99.90
2018-03-15T04:23:47.855Z,99.90
2018-03-15T04:26:15.313Z,99.90
2018-03-15T04:28:42.724Z,99.90
2018-03-15T04:31:10.163Z,99.90
2018-03-15T04:33:38.348Z,99.90
2018-03-15T04:36:05.800Z,99.90
2018-03-15T04:38:33.221Z,99.90
2018-03-15T04:41:00.698Z,99.90
2018-03-15T04:43:28.120Z,99.90
2018-03-15T04:45:55.548Z,99.90
2018-03-15T04:48:22.975Z,99.90
2018-03-15T04:50:50.395Z,99.90
2018-03-15T04:53:18.592Z,99.90
2018-03-15T04:55:46.024Z,99.90
2018-03-15T04:58:13.457Z,99.90
2018-03-15T05:00:42.338Z,99.90
2018-03-15T05:03:09.774Z,99.90
2018-03-15T05:05:37.972Z,99.90
2018-03-15T05:08:05.436Z,99.90
2018-03-15T05:10:32.876Z,99.90
2018-03-15T05:13:00.323Z,99.90
2018-03-15T05:15:28.561Z,99.90
2018-03-15T05:17:55.979Z,99.90
2018-03-15T05:20:23.433Z,99.90
2018-03-15T05:22:50.840Z,99.90
2018-03-15T05:25:18.262Z,99.90
2018-03-15T05:27:46.444Z,99.90
2018-03-15T05:30:13.876Z,99.90
2018-03-15T05:32:41.313Z,99.90
2018-03-15T05:35:09.516Z,99.90
2018-03-15T05:37:36.939Z,99.90
2018-03-15T05:40:04.388Z,99.90
2018-03-15T05:42:31.811Z,99.90
2018-03-15T05:44:59.284Z,99.90
2018-03-15T05:47:26.721Z,99.90
2018-03-15T05:49:54.156Z,99.90
2018-03-15T05:52:21.576Z,99.90
2018-03-15T05:54:49.017Z,99.90
2018-03-15T05:57:16.455Z,99.90
2018-03-15T05:59:44.644Z,99.90
2018-03-15T06:02:12.068Z,99.90
2018-03-15T06:04:39.532Z,99.90
2018-03-15T06:07:06.957Z,99.90
2018-03-15T06:09:34.376Z,99.80
2018-03-15T06:12:01.824Z,99.30
2018-03-15T06:14:29.280Z,99.30
2018-03-15T06:16:56.712Z,99.10
2018-03-15T06:19:24.144Z,99.00
2018-03-15T06:21:51.636Z,99.10
2018-03-15T06:24:19.089Z,98.90
2018-03-15T06:26:46.505Z,98.60
2018-03-15T06:29:13.952Z,98.60
2018-03-15T06:31:41.396Z,98.90
2018-03-15T06:34:08.832Z,98.90
2018-03-15T06:36:36.268Z,98.90
2018-03-15T06:39:03.693Z,98.80
2018-03-15T06:41:31.131Z,98.90
2018-03-15T06:43:59.312Z,98.80
2018-03-15T06:46:26.736Z,98.80
2018-03-15T06:48:54.155Z,98.50
2018-03-15T06:51:22.348Z,97.90
2018-03-15T06:53:49.783Z,97.90
2018-03-15T06:56:17.222Z,97.60
2018-03-15T06:58:44.639Z,97.50
2018-03-15T07:01:12.836Z,97.00
2018-03-15T07:03:40.277Z,97.00
2018-03-15T07:06:07.696Z,96.80
2018-03-15T07:08:35.115Z,96.30
2018-03-15T07:11:03.318Z,96.00
2018-03-15T07:13:30.739Z,95.90
2018-03-15T07:15:58.221Z,95.90
2018-03-15T07:18:25.644Z,95.50
2018-03-15T07:20:53.057Z,95.40
2018-03-15T07:23:20.505Z,95.50
2018-03-15T07:25:47.931Z,95.20
2018-03-15T07:28:15.376Z,95.20
2018-03-15T07:30:43.675Z,95.20
2018-03-15T07:33:11.123Z,94.90
2018-03-15T07:35:38.544Z,95.10
2018-03-15T07:38:06.007Z,95.00
2018-03-15T07:40:33.443Z,94.80
2018-03-15T07:43:00.880Z,94.70
2018-03-15T07:45:28.300Z,94.50
2018-03-15T07:47:55.783Z,94.50
2018-03-15T07:50:23.208Z,94.80
2018-03-15T07:52:50.628Z,94.00
2018-03-15T07:55:18.091Z,94.00
2018-03-15T07:57:45.524Z,93.80
2018-03-15T08:00:12.960Z,93.70
2018-03-15T08:02:40.379Z,93.60
2018-03-15T08:05:07.811Z,93.20
2018-03-15T08:07:35.248Z,92.50
2018-03-15T08:10:03.450Z,92.50
2018-03-15T08:12:30.872Z,92.40
2018-03-15T08:14:58.306Z,92.30
2018-03-15T08:17:25.736Z,91.60
2018-03-15T08:19:53.933Z,91.60
2018-03-15T08:22:21.356Z,91.60
2018-03-15T08:24:48.785Z,90.70
2018-03-15T08:27:16.201Z,90.60
2018-03-15T08:29:43.632Z,90.20
2018-03-15T08:32:11.160Z,90.20
2018-03-15T08:34:38.600Z,89.90
2018-03-15T08:37:06.029Z,89.10
2018-03-15T08:39:33.474Z,88.50
2018-03-15T08:42:00.912Z,86.60
2018-03-15T08:44:28.382Z,87.50
2018-03-15T08:46:55.799Z,87.50
2018-03-15T08:49:23.239Z,85.40
2018-03-15T08:51:50.650Z,86.20
2018-03-15T08:54:18.082Z,84.90
2018-03-15T08:56:46.278Z,85.70
2018-03-15T08:59:13.711Z,85.60
2018-03-15T09:01:41.136Z,84.90
2018-03-15T09:04:08.569Z,83.90
2018-03-15T09:06:36.749Z,82.70
2018-03-15T09:09:04.214Z,82.70
2018-03-15T09:11:31.595Z,82.00
2018-03-15T09:13:59.805Z,83.00
2018-03-15T09:16:27.217Z,82.90
2018-03-15T09:18:54.646Z,82.90
2018-03-15T09:21:22.843Z,82.00
2018-03-15T09:23:50.268Z,81.90
2018-03-15T09:26:17.679Z,80.30
2018-03-15T09:28:45.864Z,78.80
2018-03-15T09:31:13.288Z,78.80
2018-03-15T09:33:41.491Z,79.00
2018-03-15T09:36:08.892Z,78.90
2018-03-15T09:38:36.323Z,78.80
2018-03-15T09:41:04.516Z,77.20
2018-03-15T09:43:31.949Z,77.10
2018-03-15T09:45:59.366Z,76.70
2018-03-15T09:48:27.556Z,74.40
2018-03-15T09:50:54.980Z,74.30
2018-03-15T09:53:22.416Z,73.50
2018-03-15T09:55:49.853Z,74.00
2018-03-15T09:58:18.047Z,73.00
2018-03-15T10:00:45.471Z,72.90
2018-03-15T10:03:12.908Z,71.30
2018-03-15T10:05:40.346Z,71.90
2018-03-15T10:08:07.756Z,70.90
2018-03-15T10:10:35.165Z,70.10
2018-03-15T10:13:02.590Z,70.70
2018-03-15T10:15:30.008Z,68.90
2018-03-15T10:17:57.432Z,67.60
2018-03-15T10:20:25.612Z,67.70
2018-03-15T10:22:53.036Z,66.70
2018-03-15T10:25:26.389Z,65.40
2018-03-15T10:27:48.668Z,65.30
2018-03-15T10:30:16.087Z,64.20
2018-03-15T10:32:43.503Z,62.10
2018-03-15T10:35:16.640Z,62.80
2018-03-15T10:37:44.083Z,62.90
2018-03-15T10:40:11.504Z,63.30
2018-03-15T10:42:38.972Z,61.90
2018-03-15T10:45:06.387Z,62.00
2018-03-15T10:47:33.800Z,62.20
2018-03-15T10:50:01.992Z,61.20
2018-03-15T10:52:29.423Z,61.10
2018-03-15T10:54:56.848Z,62.00
2018-03-15T10:57:25.048Z,61.00
2018-03-15T10:59:52.536Z,61.10
2018-03-15T11:02:19.921Z,62.10
2018-03-15T11:04:53.004Z,61.30
2018-03-15T11:07:26.264Z,60.30
2018-03-15T11:09:53.707Z,60.40
2018-03-15T11:12:21.136Z,60.10
2018-03-15T11:14:48.611Z,59.50
2018-03-15T11:17:16.032Z,58.40
2018-03-15T11:19:43.456Z,57.90
2018-03-15T11:22:10.887Z,56.90
2018-03-15T11:24:39.106Z,55.70
2018-03-15T11:27:06.535Z,55.70
2018-03-15T11:29:33.959Z,55.80
2018-03-15T11:32:01.387Z,56.90
2018-03-15T11:34:28.807Z,56.70
2018-03-15T11:36:57.010Z,55.60
2018-03-15T11:39:24.432Z,55.50
2018-03-15T11:41:51.881Z,54.80
2018-03-15T11:44:19.302Z,54.00
2018-03-15T11:46:47.492Z,53.90
2018-03-15T11:49:14.904Z,53.90
2018-03-15T11:51:43.122Z,53.10
2018-03-15T11:54:10.549Z,53.10
2018-03-15T11:56:37.959Z,51.10
2018-03-15T11:59:05.393Z,50.20
2018-03-15T12:01:32.827Z,50.70
2018-03-15T12:04:00.224Z,47.50
2018-03-15T12:06:27.656Z,48.20
2018-03-15T12:08:55.073Z,47.30
2018-03-15T12:11:22.492Z,46.10
2018-03-15T12:13:49.916Z,45.80
2018-03-15T12:16:18.145Z,46.10
2018-03-15T12:18:45.577Z,46.00
2018-03-15T12:21:13.012Z,45.50
2018-03-15T12:23:40.456Z,45.80
2018-03-15T12:26:07.875Z,45.10
2018-03-15T12:28:35.316Z,46.70
2018-03-15T12:31:02.752Z,47.20
2018-03-15T12:33:30.188Z,46.80
2018-03-15T12:35:57.682Z,46.40
2018-03-15T12:38:25.111Z,46.70
2018-03-15T12:40:52.542Z,47.20
2018-03-15T12:43:19.963Z,48.60
2018-03-15T12:45:47.435Z,49.50
2018-03-15T12:48:15.696Z,49.60
2018-03-15T12:50:43.138Z,49.70
2018-03-15T12:53:10.560Z,48.70
2018-03-15T12:55:37.980Z,48.50
2018-03-15T12:58:05.414Z,49.30
2018-03-15T13:00:33.624Z,47.20
2018-03-15T13:03:01.058Z,47.20
2018-03-15T13:05:28.625Z,47.00
2018-03-15T13:07:56.056Z,47.20
2018-03-15T13:10:23.488Z,48.20
2018-03-15T13:12:50.916Z,48.50
2018-03-15T13:15:18.340Z,49.00
2018-03-15T13:17:45.768Z,48.90
2018-03-15T13:20:13.184Z,49.30
2018-03-15T13:22:40.621Z,49.70
2018-03-15T13:25:08.030Z,49.90
2018-03-15T13:27:35.457Z,50.60
2018-03-15T13:30:02.880Z,51.30
2018-03-15T13:32:30.303Z,52.10
2018-03-15T13:34:58.488Z,53.20
2018-03-15T13:37:25.917Z,53.10
2018-03-15T13:39:54.110Z,53.30
2018-03-15T13:42:21.523Z,53.20
2018-03-15T13:44:48.948Z,53.50
2018-03-15T13:47:17.191Z,54.60
2018-03-15T13:49:44.678Z,54.10
2018-03-15T13:52:12.052Z,54.20
2018-03-15T13:54:39.482Z,54.10
2018-03-15T13:57:06.896Z,54.10
2018-03-15T13:59:34.328Z,54.80
2018-03-15T14:02:01.826Z,54.80
2018-03-15T14:04:29.270Z,55.30
2018-03-15T14:06:56.696Z,55.60
2018-03-15T14:09:24.202Z,56.50
2018-03-15T14:11:51.648Z,56.60
2018-03-15T14:14:19.129Z,57.30
2018-03-15T14:16:46.536Z,57.50
2018-03-15T14:19:13.988Z,57.50
2018-03-15T14:21:41.463Z,58.30
2018-03-15T14:24:09.012Z,58.60
2018-03-15T14:26:36.432Z,58.10
2018-03-15T14:29:03.884Z,58.30
2018-03-15T14:31:31.310Z,58.60
2018-03-15T14:33:58.736Z,59.40
2018-03-15T14:36:26.168Z,59.70
2018-03-15T14:38:53.607Z,59.80
2018-03-15T14:41:21.041Z,61.10
2018-03-15T14:43:49.282Z,61.60
2018-03-15T14:46:16.664Z,61.50
2018-03-15T14:48:44.092Z,61.90
2018-03-15T14:51:11.516Z,61.80
2018-03-15T14:53:39.708Z,63.50
2018-03-15T14:56:07.141Z,63.40
2018-03-15T14:58:34.564Z,63.50
2018-03-15T15:01:01.988Z,63.30
2018-03-15T15:03:30.177Z,64.90
2018-03-15T15:05:57.652Z,64.80
2018-03-15T15:08:25.080Z,64.60
2018-03-15T15:10:52.536Z,65.20
2018-03-15T15:13:19.956Z,65.20
2018-03-15T15:15:47.420Z,65.50
2018-03-15T15:18:14.891Z,65.20
2018-03-15T15:20:42.284Z,65.50
2018-03-15T15:23:09.712Z,66.20
2018-03-15T15:25:37.160Z,66.20
2018-03-15T15:28:04.584Z,67.00
2018-03-15T15:30:32.032Z,66.90
2018-03-15T15:32:59.443Z,67.50
2018-03-15T15:35:27.636Z,67.70
2018-03-15T15:37:55.074Z,67.70
2018-03-15T15:40:22.490Z,68.20
2018-03-15T15:42:50.684Z,68.90
2018-03-15T15:45:18.136Z,68.90
2018-03-15T15:47:45.564Z,70.00
2018-03-15T15:50:12.988Z,70.40
2018-03-15T15:52:40.416Z,70.40
2018-03-15T15:55:08.624Z,71.40
2018-03-15T15:57:36.056Z,71.40
2018-03-15T16:00:03.491Z,71.70
2018-03-15T16:02:30.926Z,73.00
2018-03-15T16:04:58.364Z,73.00
2018-03-15T16:07:25.792Z,73.50
2018-03-15T16:09:53.988Z,73.90
2018-03-15T16:12:21.420Z,73.80
2018-03-15T16:14:48.880Z,74.30
2018-03-15T16:17:16.320Z,74.90
2018-03-15T16:19:43.758Z,74.90
2018-03-15T16:22:11.191Z,76.60
2018-03-15T16:24:38.624Z,78.90
2018-03-15T16:27:06.059Z,82.80
2018-03-15T16:29:33.479Z,86.00
2018-03-15T16:32:01.684Z,86.40
2018-03-15T16:34:29.120Z,86.20
2018-03-15T16:36:56.564Z,87.70
2018-03-15T16:39:23.988Z,86.20
2018-03-15T16:41:51.423Z,85.50
2018-03-15T16:44:18.919Z,86.40
2018-03-15T16:46:46.361Z,85.10
2018-03-15T16:49:14.547Z,85.60
2018-03-15T16:51:42.756Z,85.10
2018-03-15T16:54:10.179Z,85.10
2018-03-15T16:56:37.605Z,83.90
2018-03-15T16:59:05.040Z,83.40
2018-03-15T17:01:32.479Z,83.70
2018-03-15T17:03:59.916Z,83.10
2018-03-15T17:06:28.109Z,85.10
2018-03-15T17:08:55.550Z,85.00
2018-03-15T17:11:22.988Z,83.40
2018-03-15T17:13:50.404Z,84.40
2018-03-15T17:16:17.843Z,84.00
2018-03-15T17:18:46.048Z,84.40
2018-03-15T17:21:13.477Z,84.20
2018-03-15T17:23:40.912Z,85.00
2018-03-15T17:26:08.364Z,85.70
2018-03-15T17:28:35.804Z,87.30
2018-03-15T17:31:03.228Z,87.40
2018-03-15T17:33:30.655Z,87.30
2018-03-15T17:35:58.852Z,87.80
2018-03-15T17:38:26.276Z,87.80
2018-03-15T17:40:53.719Z,87.20
2018-03-15T17:43:21.187Z,88.00
2018-03-15T17:45:48.608Z,87.70
2018-03-15T17:48:16.032Z,87.50
2018-03-15T17:50:43.516Z,86.30
2018-03-15T17:53:10.932Z,85.40
2018-03-15T17:55:38.364Z,84.90
2018-03-15T17:58:05.796Z,85.40
2018-03-15T18:00:33.221Z,85.80
2018-03-15T18:03:00.651Z,86.20
2018-03-15T18:05:28.161Z,85.00
2018-03-15T18:07:55.639Z,85.10
2018-03-15T18:10:23.056Z,85.20
2018-03-15T18:12:50.488Z,86.30
2018-03-15T18:15:17.924Z,86.50
2018-03-15T18:17:45.362Z,86.60
2018-03-15T18:20:12.772Z,86.80
2018-03-15T18:22:40.195Z,87.50
2018-03-15T18:25:08.385Z,88.60
2018-03-15T18:27:35.803Z,88.50
2018-03-15T18:30:03.259Z,88.90
2018-03-15T18:32:30.679Z,89.10
2018-03-15T18:34:58.880Z,90.10
2018-03-15T18:37:27.984Z,90.00
2018-03-15T18:39:55.425Z,90.20
2018-03-15T18:42:22.851Z,90.60
2018-03-15T18:44:50.280Z,91.00
2018-03-15T18:47:17.699Z,90.90
2018-03-15T18:49:45.140Z,91.00
2018-03-15T18:52:12.560Z,91.20
2018-03-15T18:54:40.762Z,91.60
2018-03-15T18:57:08.190Z,91.50
2018-03-15T18:59:35.630Z,91.40
2018-03-15T19:02:03.075Z,91.50
2018-03-15T19:04:30.553Z,91.70
2018-03-15T19:06:57.964Z,91.90
2018-03-15T19:09:25.403Z,92.00
2018-03-15T19:11:52.840Z,91.90
2018-03-15T19:14:20.291Z,91.90
2018-03-15T19:16:47.725Z,91.60
2018-03-15T19:19:15.162Z,91.50
2018-03-15T19:21:43.339Z,91.80
2018-03-15T19:24:10.768Z,91.80
2018-03-15T19:26:38.204Z,91.80
2018-03-15T19:29:05.629Z,92.10
2018-03-15T19:31:33.837Z,92.20
2018-03-15T19:34:01.251Z,92.20
2018-03-15T19:36:28.688Z,92.50
2018-03-15T19:38:56.120Z,92.10
2018-03-15T19:41:23.581Z,92.20
2018-03-15T19:43:51.008Z,92.20
2018-03-15T19:46:18.442Z,91.90
2018-03-15T19:48:46.633Z,91.00
2018-03-15T19:51:14.080Z,91.00
2018-03-15T19:53:41.497Z,90.00
2018-03-15T19:56:08.932Z,88.60
2018-03-15T19:58:36.368Z,88.50
2018-03-15T20:01:03.800Z,86.40
2018-03-15T20:03:31.216Z,86.10
2018-03-15T20:05:58.644Z,85.80
2018-03-15T20:08:26.069Z,84.80
2018-03-15T20:10:53.515Z,85.00
2018-03-15T20:13:20.955Z,86.10
2018-03-15T20:15:49.312Z,84.80
2018-03-15T20:18:16.733Z,85.20
2018-03-15T20:20:44.152Z,85.20
2018-03-15T20:23:18.161Z,84.30
2018-03-15T20:25:45.582Z,84.30
2018-03-15T20:28:19.412Z,84.10
2018-03-15T20:30:46.836Z,84.00
2018-03-15T20:33:19.948Z,84.40
2018-03-15T20:35:47.365Z,85.00
2018-03-15T20:38:14.805Z,85.60
2018-03-15T20:40:47.835Z,86.20
2018-03-15T20:43:15.268Z,86.80
2018-03-15T20:45:48.412Z,87.60
2018-03-15T20:48:21.683Z,87.90
2018-03-15T20:50:49.105Z,88.30
2018-03-15T20:53:16.507Z,88.90
2018-03-15T20:55:44.699Z,89.70
2018-03-15T20:58:12.145Z,89.70
2018-03-15T21:00:39.558Z,90.00
2018-03-15T21:03:07.740Z,90.90
2018-03-15T21:05:35.156Z,90.80
2018-03-15T21:08:03.346Z,92.00
2018-03-15T21:10:30.772Z,91.70
2018-03-15T21:12:59.008Z,92.30
2018-03-15T21:15:26.440Z,92.30
2018-03-15T21:17:53.855Z,92.70
2018-03-15T21:20:21.285Z,92.60
2018-03-15T21:22:48.720Z,92.90
2018-03-15T21:25:16.152Z,93.10
2018-03-15T21:27:43.585Z,93.10
2018-03-15T21:30:11.022Z,93.30
2018-03-15T21:32:39.221Z,94.30
2018-03-15T21:35:06.648Z,94.30
2018-03-15T21:37:34.070Z,94.30
2018-03-15T21:40:01.497Z,94.50
2018-03-15T21:42:29.721Z,94.10
2018-03-15T21:44:57.171Z,94.10
2018-03-15T21:47:24.592Z,94.10
2018-03-15T21:49:52.028Z,94.20
2018-03-15T21:52:19.471Z,94.00
2018-03-15T21:54:46.920Z,93.90
2018-03-15T21:57:14.371Z,93.80
2018-03-15T21:59:41.808Z,93.90
2018-03-15T22:02:09.260Z,93.50
2018-03-15T22:04:38.558Z,93.20
2018-03-15T22:07:06.018Z,93.20
2018-03-15T22:09:33.478Z,93.00
2018-03-15T22:12:01.699Z,93.10
2018-03-15T22:14:29.172Z,93.10
2018-03-15T22:16:57.399Z,93.10
2018-03-15T22:19:24.877Z,93.10
2018-03-15T22:21:53.110Z,93.10
2018-03-15T22:24:20.576Z,93.00
2018-03-15T22:26:48.819Z,93.00
2018-03-15T22:29:16.295Z,93.00
2018-03-15T22:31:43.756Z,93.20
2018-03-15T22:34:11.210Z,92.90
2018-03-15T22:36:38.694Z,93.00
2018-03-15T22:39:06.181Z,93.30
2018-03-15T22:41:33.650Z,93.70
2018-03-15T22:44:01.135Z,93.80
2018-03-15T22:46:29.358Z,93.60
2018-03-15T22:48:56.823Z,93.60
2018-03-15T22:51:24.260Z,94.00
2018-03-15T22:53:51.734Z,93.60
2018-03-15T22:56:19.182Z,93.30
2018-03-15T22:58:46.656Z,93.40
2018-03-15T23:01:14.102Z,94.10
2018-03-15T23:03:41.575Z,94.10
2018-03-15T23:06:09.046Z,94.40
2018-03-15T23:08:36.526Z,94.50
2018-03-15T23:11:04.010Z,94.60
2018-03-15T23:13:31.460Z,93.50
2018-03-15T23:15:59.671Z,93.50
2018-03-15T23:18:27.931Z,93.50
2018-03-15T23:20:55.395Z,93.30
2018-03-15T23:23:23.611Z,93.10
2018-03-15T23:25:51.070Z,93.10
2018-03-15T23:28:18.518Z,93.80
2018-03-15T23:30:45.973Z,93.60
2018-03-15T23:33:14.949Z,93.30
2018-03-15T23:35:42.469Z,93.30
2018-03-15T23:38:09.946Z,93.40
2018-03-15T23:40:37.409Z,93.50
2018-03-15T23:43:05.625Z,93.60
2018-03-15T23:45:33.108Z,93.50
2018-03-15T23:48:00.574Z,93.60
2018-03-15T23:50:28.022Z,93.50
2018-03-15T23:52:55.471Z,93.60
2018-03-15T23:55:23.018Z,93.60
2018-03-15T23:57:50.470Z,93.90
